sensor_id;sensor_type;location;lat;lon;timestamp;temperature;humidity
13585;DHT22;6863;48.402;9.994;2023-09-30T00:00:27;14.90;99.90
13585;DHT22;6863;48.402;9.994;2023-09-30T00:02:52;14.90;99.90
13585;DHT22;6863;48.402;9.994;2023-09-30T00:05:18;14.80;99.90
13585;DHT22;6863;48.402;9.994;2023-09-30T00:07:46;14.80;99.90
13585;DHT22;6863;48.402;9.994;2023-09-30T00:10:11;14.80;99.90
13585;DHT22;6863;48.402;9.994;2023-09-30T00:12:37;14.90;99.90
13585;DHT22;6863;48.402;9.994;2023-09-30T00:15:03;14.90;99.90
13585;DHT22;6863;48.402;9.994;2023-09-30T00:17:29;14.90;99.90
13585;DHT22;6863;48.402;9.994;2023-09-30T00:19:55;14.90;99.90
13585;DHT22;6863;48.402;9.994;2023-09-30T00:22:20;14.90;99.90
13585;DHT22;6863;48.402;9.994;2023-09-30T00:24:46;14.90;99.90
13585;DHT22;6863;48.402;9.994;2023-09-30T00:27:12;14.90;99.90
13585;DHT22;6863;48.402;9.994;2023-09-30T00:29:38;14.90;99.90
13585;DHT22;6863;48.402;9.994;2023-09-30T00:32:03;15.00;99.90
13585;DHT22;6863;48.402;9.994;2023-09-30T00:34:32;15.00;99.90
13585;DHT22;6863;48.402;9.994;2023-09-30T00:36:58;15.00;99.90
13585;DHT22;6863;48.402;9.994;2023-09-30T00:39:24;15.00;99.90
13585;DHT22;6863;48.402;9.994;2023-09-30T00:41:52;15.10;99.90
13585;DHT22;6863;48.402;9.994;2023-09-30T00:44:18;15.00;99.90
13585;DHT22;6863;48.402;9.994;2023-09-30T00:46:43;15.00;99.90
13585;DHT22;6863;48.402;9.994;2023-09-30T00:49:10;14.90;99.90
13585;DHT22;6863;48.402;9.994;2023-09-30T00:51:39;15.00;99.90
13585;DHT22;6863;48.402;9.994;2023-09-30T00:54:05;14.90;99.90
13585;DHT22;6863;48.402;9.994;2023-09-30T00:56:32;14.80;99.90
13585;DHT22;6863;48.402;9.994;2023-09-30T00:58:58;14.80;99.90
13585;DHT22;6863;48.402;9.994;2023-09-30T01:01:24;14.80;99.90
13585;DHT22;6863;48.402;9.994;2023-09-30T01:03:50;14.80;99.90
13585;DHT22;6863;48.402;9.994;2023-09-30T01:06:16;14.80;99.90
13585;DHT22;6863;48.402;9.994;2023-09-30T01:08:41;14.80;99.90
13585;DHT22;6863;48.402;9.994;2023-09-30T01:11:07;14.80;99.90
13585;DHT22;6863;48.402;9.994;2023-09-30T01:13:35;14.70;99.90
13585;DHT22;6863;48.402;9.994;2023-09-30T01:16:08;14.70;99.90
13585;DHT22;6863;48.402;9.994;2023-09-30T01:18:35;14.60;99.90
13585;DHT22;6863;48.402;9.994;2023-09-30T01:21:04;14.70;99.90
13585;DHT22;6863;48.402;9.994;2023-09-30T01:23:31;14.70;99.90
13585;DHT22;6863;48.402;9.994;2023-09-30T01:25:56;14.80;99.90
13585;DHT22;6863;48.402;9.994;2023-09-30T01:28:22;14.80;99.90
13585;DHT22;6863;48.402;9.994;2023-09-30T01:30:48;14.90;99.90
13585;DHT22;6863;48.402;9.994;2023-09-30T01:33:14;14.90;99.90
13585;DHT22;6863;48.402;9.994;2023-09-30T01:35:42;14.80;99.90
13585;DHT22;6863;48.402;9.994;2023-09-30T01:38:08;14.80;99.90
13585;DHT22;6863;48.402;9.994;2023-09-30T01:40:33;14.70;99.90
13585;DHT22;6863;48.402;9.994;2023-09-30T01:42:59;14.60;99.90
13585;DHT22;6863;48.402;9.994;2023-09-30T01:45:24;14.60;99.90
13585;DHT22;6863;48.402;9.994;2023-09-30T01:47:50;14.60;99.90
13585;DHT22;6863;48.402;9.994;2023-09-30T01:50:15;14.50;99.90
13585;DHT22;6863;48.402;9.994;2023-09-30T01:52:42;14.30;99.90
13585;DHT22;6863;48.402;9.994;2023-09-30T01:55:08;14.20;99.90
13585;DHT22;6863;48.402;9.994;2023-09-30T01:57:34;14.10;99.90
13585;DHT22;6863;48.402;9.994;2023-09-30T01:59:59;14.00;99.90
13585;DHT22;6863;48.402;9.994;2023-09-30T02:02:25;13.90;99.90
13585;DHT22;6863;48.402;9.994;2023-09-30T02:04:51;13.80;99.90
13585;DHT22;6863;48.402;9.994;2023-09-30T02:07:18;13.70;99.90
13585;DHT22;6863;48.402;9.994;2023-09-30T02:09:44;13.70;99.90
13585;DHT22;6863;48.402;9.994;2023-09-30T02:12:10;13.60;99.90
13585;DHT22;6863;48.402;9.994;2023-09-30T02:14:36;13.60;99.90
13585;DHT22;6863;48.402;9.994;2023-09-30T02:17:04;13.60;99.90
13585;DHT22;6863;48.402;9.994;2023-09-30T02:19:29;13.50;99.90
13585;DHT22;6863;48.402;9.994;2023-09-30T02:21:56;13.50;99.90
13585;DHT22;6863;48.402;9.994;2023-09-30T02:24:22;13.50;99.90
13585;DHT22;6863;48.402;9.994;2023-09-30T02:26:48;13.50;99.90
13585;DHT22;6863;48.402;9.994;2023-09-30T02:29:14;13.40;99.90
13585;DHT22;6863;48.402;9.994;2023-09-30T02:31:40;13.40;99.90
13585;DHT22;6863;48.402;9.994;2023-09-30T02:34:06;13.30;99.90
13585;DHT22;6863;48.402;9.994;2023-09-30T02:36:32;13.30;99.90
13585;DHT22;6863;48.402;9.994;2023-09-30T02:38:58;13.30;99.90
13585;DHT22;6863;48.402;9.994;2023-09-30T02:41:24;13.20;99.90
13585;DHT22;6863;48.402;9.994;2023-09-30T02:43:50;13.20;99.90
13585;DHT22;6863;48.402;9.994;2023-09-30T02:46:16;13.20;99.90
13585;DHT22;6863;48.402;9.994;2023-09-30T02:48:41;13.20;99.90
13585;DHT22;6863;48.402;9.994;2023-09-30T02:51:11;13.20;99.90
13585;DHT22;6863;48.402;9.994;2023-09-30T02:53:36;13.10;99.90
13585;DHT22;6863;48.402;9.994;2023-09-30T02:56:02;13.10;99.90
13585;DHT22;6863;48.402;9.994;2023-09-30T02:58:30;13.10;99.90
13585;DHT22;6863;48.402;9.994;2023-09-30T03:00:55;13.10;99.90
13585;DHT22;6863;48.402;9.994;2023-09-30T03:03:21;13.00;99.90
13585;DHT22;6863;48.402;9.994;2023-09-30T03:05:47;13.00;99.90
13585;DHT22;6863;48.402;9.994;2023-09-30T03:08:15;13.00;99.90
13585;DHT22;6863;48.402;9.994;2023-09-30T03:10:41;13.10;99.90
13585;DHT22;6863;48.402;9.994;2023-09-30T03:13:07;13.20;99.90
13585;DHT22;6863;48.402;9.994;2023-09-30T03:15:34;13.40;99.90
13585;DHT22;6863;48.402;9.994;2023-09-30T03:18:00;13.60;99.90
13585;DHT22;6863;48.402;9.994;2023-09-30T03:20:26;13.70;99.90
13585;DHT22;6863;48.402;9.994;2023-09-30T03:22:52;13.70;99.90
13585;DHT22;6863;48.402;9.994;2023-09-30T03:25:19;13.80;99.90
13585;DHT22;6863;48.402;9.994;2023-09-30T03:27:46;13.70;99.90
13585;DHT22;6863;48.402;9.994;2023-09-30T03:30:13;13.70;99.90
13585;DHT22;6863;48.402;9.994;2023-09-30T03:32:40;13.60;99.90
13585;DHT22;6863;48.402;9.994;2023-09-30T03:35:08;13.50;99.90
13585;DHT22;6863;48.402;9.994;2023-09-30T03:37:48;13.40;99.90
13585;DHT22;6863;48.402;9.994;2023-09-30T03:40:14;13.40;99.90
13585;DHT22;6863;48.402;9.994;2023-09-30T03:42:43;13.40;99.90
13585;DHT22;6863;48.402;9.994;2023-09-30T03:45:10;13.30;99.90
13585;DHT22;6863;48.402;9.994;2023-09-30T03:47:38;13.20;99.90
13585;DHT22;6863;48.402;9.994;2023-09-30T03:50:04;13.20;99.90
13585;DHT22;6863;48.402;9.994;2023-09-30T03:52:32;13.20;99.90
13585;DHT22;6863;48.402;9.994;2023-09-30T03:54:59;13.20;99.90
13585;DHT22;6863;48.402;9.994;2023-09-30T03:57:25;13.30;99.90
13585;DHT22;6863;48.402;9.994;2023-09-30T03:59:51;13.30;99.90
13585;DHT22;6863;48.402;9.994;2023-09-30T04:02:17;13.40;99.90
13585;DHT22;6863;48.402;9.994;2023-09-30T04:04:44;13.40;99.90
13585;DHT22;6863;48.402;9.994;2023-09-30T04:07:11;13.60;99.90
13585;DHT22;6863;48.402;9.994;2023-09-30T04:09:38;13.50;99.90
13585;DHT22;6863;48.402;9.994;2023-09-30T04:12:03;13.50;99.90
13585;DHT22;6863;48.402;9.994;2023-09-30T04:14:29;13.40;99.90
13585;DHT22;6863;48.402;9.994;2023-09-30T04:16:54;13.30;99.90
13585;DHT22;6863;48.402;9.994;2023-09-30T04:19:20;13.30;99.90
13585;DHT22;6863;48.402;9.994;2023-09-30T04:21:46;13.20;99.90
13585;DHT22;6863;48.402;9.994;2023-09-30T04:24:12;13.20;99.90
13585;DHT22;6863;48.402;9.994;2023-09-30T04:26:37;13.10;99.90
13585;DHT22;6863;48.402;9.994;2023-09-30T04:29:03;13.10;99.90
13585;DHT22;6863;48.402;9.994;2023-09-30T04:31:30;13.10;99.90
13585;DHT22;6863;48.402;9.994;2023-09-30T04:33:55;13.10;99.90
13585;DHT22;6863;48.402;9.994;2023-09-30T04:36:23;13.10;99.90
13585;DHT22;6863;48.402;9.994;2023-09-30T04:38:49;13.00;99.90
13585;DHT22;6863;48.402;9.994;2023-09-30T04:41:14;13.00;99.90
13585;DHT22;6863;48.402;9.994;2023-09-30T04:43:41;13.00;99.90
13585;DHT22;6863;48.402;9.994;2023-09-30T04:46:08;13.00;99.90
13585;DHT22;6863;48.402;9.994;2023-09-30T04:48:34;13.00;99.90
13585;DHT22;6863;48.402;9.994;2023-09-30T04:51:00;13.00;99.90
13585;DHT22;6863;48.402;9.994;2023-09-30T04:53:30;13.00;99.90
13585;DHT22;6863;48.402;9.994;2023-09-30T04:55:55;13.10;99.90
13585;DHT22;6863;48.402;9.994;2023-09-30T04:58:21;13.10;99.90
13585;DHT22;6863;48.402;9.994;2023-09-30T05:00:47;13.10;99.90
13585;DHT22;6863;48.402;9.994;2023-09-30T05:03:13;13.10;99.90
13585;DHT22;6863;48.402;9.994;2023-09-30T05:05:38;13.00;99.90
13585;DHT22;6863;48.402;9.994;2023-09-30T05:08:04;13.10;99.90
13585;DHT22;6863;48.402;9.994;2023-09-30T05:10:31;13.20;99.90
13585;DHT22;6863;48.402;9.994;2023-09-30T05:12:57;13.30;99.90
13585;DHT22;6863;48.402;9.994;2023-09-30T05:15:22;13.30;99.90
13585;DHT22;6863;48.402;9.994;2023-09-30T05:17:48;13.40;99.90
13585;DHT22;6863;48.402;9.994;2023-09-30T05:20:15;13.50;99.90
13585;DHT22;6863;48.402;9.994;2023-09-30T05:22:43;13.60;99.90
13585;DHT22;6863;48.402;9.994;2023-09-30T05:25:14;13.70;99.90
13585;DHT22;6863;48.402;9.994;2023-09-30T05:27:44;13.60;99.90
13585;DHT22;6863;48.402;9.994;2023-09-30T05:30:10;13.70;99.90
13585;DHT22;6863;48.402;9.994;2023-09-30T05:32:41;13.80;99.90
13585;DHT22;6863;48.402;9.994;2023-09-30T05:35:07;13.80;99.90
13585;DHT22;6863;48.402;9.994;2023-09-30T05:37:41;13.80;99.90
13585;DHT22;6863;48.402;9.994;2023-09-30T05:40:08;13.90;99.90
13585;DHT22;6863;48.402;9.994;2023-09-30T05:42:53;13.90;99.90
13585;DHT22;6863;48.402;9.994;2023-09-30T05:45:19;13.80;99.90
13585;DHT22;6863;48.402;9.994;2023-09-30T05:47:45;13.90;99.90
13585;DHT22;6863;48.402;9.994;2023-09-30T05:50:11;13.90;99.90
13585;DHT22;6863;48.402;9.994;2023-09-30T05:52:42;13.90;99.90
13585;DHT22;6863;48.402;9.994;2023-09-30T05:55:08;13.90;99.90
13585;DHT22;6863;48.402;9.994;2023-09-30T05:57:34;14.00;99.90
13585;DHT22;6863;48.402;9.994;2023-09-30T06:00:01;14.00;99.90
13585;DHT22;6863;48.402;9.994;2023-09-30T06:02:26;13.90;99.90
13585;DHT22;6863;48.402;9.994;2023-09-30T06:04:52;14.00;99.90
13585;DHT22;6863;48.402;9.994;2023-09-30T06:07:19;14.00;99.90
13585;DHT22;6863;48.402;9.994;2023-09-30T06:09:46;14.00;99.90
13585;DHT22;6863;48.402;9.994;2023-09-30T06:12:13;14.10;99.90
13585;DHT22;6863;48.402;9.994;2023-09-30T06:14:39;14.10;99.90
13585;DHT22;6863;48.402;9.994;2023-09-30T06:17:07;14.20;99.90
13585;DHT22;6863;48.402;9.994;2023-09-30T06:19:32;14.20;99.90
13585;DHT22;6863;48.402;9.994;2023-09-30T06:21:58;14.30;99.90
13585;DHT22;6863;48.402;9.994;2023-09-30T06:24:24;14.30;99.90
13585;DHT22;6863;48.402;9.994;2023-09-30T06:26:49;14.40;99.90
13585;DHT22;6863;48.402;9.994;2023-09-30T06:29:15;14.50;99.90
13585;DHT22;6863;48.402;9.994;2023-09-30T06:31:41;14.70;99.90
13585;DHT22;6863;48.402;9.994;2023-09-30T06:34:06;14.70;99.90
13585;DHT22;6863;48.402;9.994;2023-09-30T06:36:32;14.70;99.90
13585;DHT22;6863;48.402;9.994;2023-09-30T06:38:58;14.80;99.90
13585;DHT22;6863;48.402;9.994;2023-09-30T06:41:24;14.80;99.90
13585;DHT22;6863;48.402;9.994;2023-09-30T06:43:50;14.90;99.90
13585;DHT22;6863;48.402;9.994;2023-09-30T06:46:17;15.00;99.90
13585;DHT22;6863;48.402;9.994;2023-09-30T06:48:42;15.20;99.90
13585;DHT22;6863;48.402;9.994;2023-09-30T06:51:13;15.50;99.90
13585;DHT22;6863;48.402;9.994;2023-09-30T06:53:40;15.70;99.90
13585;DHT22;6863;48.402;9.994;2023-09-30T06:56:06;15.90;99.90
13585;DHT22;6863;48.402;9.994;2023-09-30T06:58:32;15.90;99.90
13585;DHT22;6863;48.402;9.994;2023-09-30T07:00:57;15.80;99.90
13585;DHT22;6863;48.402;9.994;2023-09-30T07:03:23;15.90;99.90
13585;DHT22;6863;48.402;9.994;2023-09-30T07:05:48;15.90;99.90
13585;DHT22;6863;48.402;9.994;2023-09-30T07:08:17;16.00;99.90
13585;DHT22;6863;48.402;9.994;2023-09-30T07:10:44;16.00;99.90
13585;DHT22;6863;48.402;9.994;2023-09-30T07:13:11;16.20;99.90
13585;DHT22;6863;48.402;9.994;2023-09-30T07:15:37;16.30;99.90
13585;DHT22;6863;48.402;9.994;2023-09-30T07:18:03;16.60;99.90
13585;DHT22;6863;48.402;9.994;2023-09-30T07:20:29;17.00;99.90
13585;DHT22;6863;48.402;9.994;2023-09-30T07:22:59;17.40;99.90
13585;DHT22;6863;48.402;9.994;2023-09-30T07:25:25;17.50;99.90
13585;DHT22;6863;48.402;9.994;2023-09-30T07:27:50;17.70;99.90
13585;DHT22;6863;48.402;9.994;2023-09-30T07:30:16;17.80;99.90
13585;DHT22;6863;48.402;9.994;2023-09-30T07:32:42;17.90;99.90
13585;DHT22;6863;48.402;9.994;2023-09-30T07:35:09;17.70;99.90
13585;DHT22;6863;48.402;9.994;2023-09-30T07:37:34;17.40;99.90
13585;DHT22;6863;48.402;9.994;2023-09-30T07:40:00;17.40;99.90
13585;DHT22;6863;48.402;9.994;2023-09-30T07:42:26;17.50;99.90
13585;DHT22;6863;48.402;9.994;2023-09-30T07:44:51;17.50;99.90
13585;DHT22;6863;48.402;9.994;2023-09-30T07:47:17;17.40;99.90
13585;DHT22;6863;48.402;9.994;2023-09-30T07:49:42;17.40;99.90
13585;DHT22;6863;48.402;9.994;2023-09-30T07:52:08;17.30;99.90
13585;DHT22;6863;48.402;9.994;2023-09-30T07:54:34;17.30;99.90
13585;DHT22;6863;48.402;9.994;2023-09-30T07:57:00;17.20;99.90
13585;DHT22;6863;48.402;9.994;2023-09-30T07:59:26;17.20;99.90
13585;DHT22;6863;48.402;9.994;2023-09-30T08:01:51;17.20;99.90
13585;DHT22;6863;48.402;9.994;2023-09-30T08:06:49;17.70;99.90
13585;DHT22;6863;48.402;9.994;2023-09-30T08:09:16;18.20;99.90
13585;DHT22;6863;48.402;9.994;2023-09-30T08:11:44;18.70;99.20
13585;DHT22;6863;48.402;9.994;2023-09-30T08:14:09;19.10;98.10
13585;DHT22;6863;48.402;9.994;2023-09-30T08:16:36;19.60;97.40
13585;DHT22;6863;48.402;9.994;2023-09-30T08:19:02;20.20;96.10
13585;DHT22;6863;48.402;9.994;2023-09-30T08:21:29;20.40;95.10
13585;DHT22;6863;48.402;9.994;2023-09-30T08:23:54;20.90;94.40
13585;DHT22;6863;48.402;9.994;2023-09-30T08:26:20;21.70;93.30
13585;DHT22;6863;48.402;9.994;2023-09-30T08:28:46;22.30;91.70
13585;DHT22;6863;48.402;9.994;2023-09-30T08:31:11;22.40;91.20
13585;DHT22;6863;48.402;9.994;2023-09-30T08:33:37;22.00;90.70
13585;DHT22;6863;48.402;9.994;2023-09-30T08:36:05;21.60;91.30
13585;DHT22;6863;48.402;9.994;2023-09-30T08:38:36;21.60;91.10
13585;DHT22;6863;48.402;9.994;2023-09-30T08:41:02;21.70;90.80
13585;DHT22;6863;48.402;9.994;2023-09-30T08:43:28;21.80;90.60
13585;DHT22;6863;48.402;9.994;2023-09-30T08:45:56;21.60;90.60
13585;DHT22;6863;48.402;9.994;2023-09-30T08:48:23;21.50;90.90
13585;DHT22;6863;48.402;9.994;2023-09-30T08:50:53;21.40;91.00
13585;DHT22;6863;48.402;9.994;2023-09-30T08:53:20;21.40;90.90
13585;DHT22;6863;48.402;9.994;2023-09-30T08:55:46;21.90;90.20
13585;DHT22;6863;48.402;9.994;2023-09-30T08:58:12;21.90;90.10
13585;DHT22;6863;48.402;9.994;2023-09-30T09:00:42;21.80;89.80
13585;DHT22;6863;48.402;9.994;2023-09-30T09:03:08;21.80;90.20
13585;DHT22;6863;48.402;9.994;2023-09-30T09:05:34;21.90;89.40
13585;DHT22;6863;48.402;9.994;2023-09-30T09:07:59;21.70;89.50
13585;DHT22;6863;48.402;9.994;2023-09-30T09:10:25;21.70;89.80
13585;DHT22;6863;48.402;9.994;2023-09-30T09:12:58;22.00;88.50
13585;DHT22;6863;48.402;9.994;2023-09-30T09:15:26;21.90;88.40
13585;DHT22;6863;48.402;9.994;2023-09-30T09:17:52;21.90;87.20
13585;DHT22;6863;48.402;9.994;2023-09-30T09:20:23;22.00;87.10
13585;DHT22;6863;48.402;9.994;2023-09-30T09:22:53;21.90;87.70
13585;DHT22;6863;48.402;9.994;2023-09-30T09:25:21;22.10;87.50
13585;DHT22;6863;48.402;9.994;2023-09-30T09:27:49;22.40;86.70
13585;DHT22;6863;48.402;9.994;2023-09-30T09:30:16;22.90;84.50
13585;DHT22;6863;48.402;9.994;2023-09-30T09:33:10;23.50;83.70
13585;DHT22;6863;48.402;9.994;2023-09-30T09:35:36;24.90;78.50
13585;DHT22;6863;48.402;9.994;2023-09-30T09:38:06;26.40;73.50
13585;DHT22;6863;48.402;9.994;2023-09-30T09:40:36;26.50;70.50
13585;DHT22;6863;48.402;9.994;2023-09-30T09:43:04;28.10;67.10
13585;DHT22;6863;48.402;9.994;2023-09-30T09:45:35;29.50;59.80
13585;DHT22;6863;48.402;9.994;2023-09-30T09:48:01;28.70;60.70
13585;DHT22;6863;48.402;9.994;2023-09-30T09:50:30;29.70;58.10
13585;DHT22;6863;48.402;9.994;2023-09-30T09:52:58;30.50;54.60
13585;DHT22;6863;48.402;9.994;2023-09-30T09:55:26;29.10;55.80
13585;DHT22;6863;48.402;9.994;2023-09-30T09:57:53;27.80;59.10
13585;DHT22;6863;48.402;9.994;2023-09-30T10:00:22;27.70;59.40
13585;DHT22;6863;48.402;9.994;2023-09-30T10:02:49;28.00;58.40
13585;DHT22;6863;48.402;9.994;2023-09-30T10:05:17;27.60;59.10
13585;DHT22;6863;48.402;9.994;2023-09-30T10:07:57;27.50;59.10
13585;DHT22;6863;48.402;9.994;2023-09-30T10:10:25;27.10;59.20
13585;DHT22;6863;48.402;9.994;2023-09-30T10:12:51;26.00;62.40
13585;DHT22;6863;48.402;9.994;2023-09-30T10:18:02;27.70;59.80
13585;DHT22;6863;48.402;9.994;2023-09-30T10:20:38;30.40;55.10
13585;DHT22;6863;48.402;9.994;2023-09-30T10:23:26;31.00;51.10
13585;DHT22;6863;48.402;9.994;2023-09-30T10:25:53;33.90;46.10
13585;DHT22;6863;48.402;9.994;2023-09-30T10:36:38;33.50;43.20
13585;DHT22;6863;48.402;9.994;2023-09-30T10:39:05;32.60;43.40
13585;DHT22;6863;48.402;9.994;2023-09-30T10:46:52;33.80;41.00
13585;DHT22;6863;48.402;9.994;2023-09-30T10:51:54;34.90;39.20
13585;DHT22;6863;48.402;9.994;2023-09-30T10:54:28;35.20;38.70
13585;DHT22;6863;48.402;9.994;2023-09-30T10:56:54;34.50;38.70
13585;DHT22;6863;48.402;9.994;2023-09-30T10:59:23;33.30;40.20
13585;DHT22;6863;48.402;9.994;2023-09-30T11:01:50;32.80;40.80
13585;DHT22;6863;48.402;9.994;2023-09-30T11:06:47;29.60;46.80
13585;DHT22;6863;48.402;9.994;2023-09-30T11:09:22;29.80;47.60
13585;DHT22;6863;48.402;9.994;2023-09-30T11:11:49;31.60;45.10
13585;DHT22;6863;48.402;9.994;2023-09-30T11:14:31;33.90;40.80
13585;DHT22;6863;48.402;9.994;2023-09-30T11:17:02;33.70;39.70
13585;DHT22;6863;48.402;9.994;2023-09-30T11:19:36;32.10;42.20
13585;DHT22;6863;48.402;9.994;2023-09-30T11:22:02;32.30;41.30
13585;DHT22;6863;48.402;9.994;2023-09-30T11:24:28;33.10;40.30
13585;DHT22;6863;48.402;9.994;2023-09-30T11:26:55;33.20;39.70
13585;DHT22;6863;48.402;9.994;2023-09-30T11:29:23;34.20;38.10
13585;DHT22;6863;48.402;9.994;2023-09-30T11:31:50;35.30;36.10
13585;DHT22;6863;48.402;9.994;2023-09-30T11:34:17;34.60;36.50
13585;DHT22;6863;48.402;9.994;2023-09-30T11:36:50;33.80;37.70
13585;DHT22;6863;48.402;9.994;2023-09-30T11:39:27;32.10;40.00
13585;DHT22;6863;48.402;9.994;2023-09-30T11:41:54;32.20;40.60
13585;DHT22;6863;48.402;9.994;2023-09-30T11:44:22;32.70;40.00
13585;DHT22;6863;48.402;9.994;2023-09-30T11:46:51;34.50;37.80
13585;DHT22;6863;48.402;9.994;2023-09-30T11:49:34;34.30;37.30
13585;DHT22;6863;48.402;9.994;2023-09-30T11:52:02;33.70;38.10
13585;DHT22;6863;48.402;9.994;2023-09-30T11:54:32;33.00;38.90
13585;DHT22;6863;48.402;9.994;2023-09-30T11:57:00;32.10;40.40
13585;DHT22;6863;48.402;9.994;2023-09-30T11:59:26;31.10;41.90
13585;DHT22;6863;48.402;9.994;2023-09-30T12:01:51;31.10;42.00
13585;DHT22;6863;48.402;9.994;2023-09-30T12:06:43;30.10;43.70
13585;DHT22;6863;48.402;9.994;2023-09-30T12:09:08;29.20;44.90
13585;DHT22;6863;48.402;9.994;2023-09-30T12:11:39;28.40;46.70
13585;DHT22;6863;48.402;9.994;2023-09-30T12:14:04;27.70;48.20
13585;DHT22;6863;48.402;9.994;2023-09-30T12:16:30;27.40;49.30
13585;DHT22;6863;48.402;9.994;2023-09-30T12:18:56;26.90;50.50
13585;DHT22;6863;48.402;9.994;2023-09-30T12:21:21;26.90;50.80
13585;DHT22;6863;48.402;9.994;2023-09-30T12:23:48;26.70;51.30
13585;DHT22;6863;48.402;9.994;2023-09-30T12:26:14;26.50;52.00
13585;DHT22;6863;48.402;9.994;2023-09-30T12:28:40;26.60;52.20
13585;DHT22;6863;48.402;9.994;2023-09-30T12:31:09;26.40;52.30
13585;DHT22;6863;48.402;9.994;2023-09-30T12:33:36;26.20;53.40
13585;DHT22;6863;48.402;9.994;2023-09-30T12:36:01;27.50;51.20
13585;DHT22;6863;48.402;9.994;2023-09-30T12:38:27;28.60;48.70
13585;DHT22;6863;48.402;9.994;2023-09-30T12:40:57;28.80;47.80
13585;DHT22;6863;48.402;9.994;2023-09-30T12:43:23;28.40;48.30
13585;DHT22;6863;48.402;9.994;2023-09-30T12:45:49;27.50;49.70
13585;DHT22;6863;48.402;9.994;2023-09-30T12:48:15;27.30;50.20
13585;DHT22;6863;48.402;9.994;2023-09-30T12:50:47;26.50;52.00
13585;DHT22;6863;48.402;9.994;2023-09-30T12:53:14;26.50;52.30
13585;DHT22;6863;48.402;9.994;2023-09-30T12:55:39;26.30;53.00
13585;DHT22;6863;48.402;9.994;2023-09-30T12:58:05;26.70;52.00
13585;DHT22;6863;48.402;9.994;2023-09-30T13:00:31;27.40;51.00
13585;DHT22;6863;48.402;9.994;2023-09-30T13:02:59;29.60;47.30
13585;DHT22;6863;48.402;9.994;2023-09-30T13:05:25;31.00;44.60
13585;DHT22;6863;48.402;9.994;2023-09-30T13:07:51;31.70;42.40
13585;DHT22;6863;48.402;9.994;2023-09-30T13:10:18;32.20;40.90
13585;DHT22;6863;48.402;9.994;2023-09-30T13:12:44;30.90;42.20
13585;DHT22;6863;48.402;9.994;2023-09-30T13:15:10;30.30;43.70
13585;DHT22;6863;48.402;9.994;2023-09-30T13:17:35;30.10;44.30
13585;DHT22;6863;48.402;9.994;2023-09-30T13:20:01;29.60;45.20
13585;DHT22;6863;48.402;9.994;2023-09-30T13:22:30;29.30;45.80
13585;DHT22;6863;48.402;9.994;2023-09-30T13:24:56;28.70;46.60
13585;DHT22;6863;48.402;9.994;2023-09-30T13:27:21;28.00;47.40
13585;DHT22;6863;48.402;9.994;2023-09-30T13:29:47;27.40;49.10
13585;DHT22;6863;48.402;9.994;2023-09-30T13:32:12;28.10;48.20
13585;DHT22;6863;48.402;9.994;2023-09-30T13:34:39;29.80;45.80
13585;DHT22;6863;48.402;9.994;2023-09-30T13:37:05;30.70;42.80
13585;DHT22;6863;48.402;9.994;2023-09-30T13:39:30;31.40;41.40
13585;DHT22;6863;48.402;9.994;2023-09-30T13:41:56;32.30;39.60
13585;DHT22;6863;48.402;9.994;2023-09-30T13:44:22;32.30;38.90
13585;DHT22;6863;48.402;9.994;2023-09-30T13:46:48;31.80;39.60
13585;DHT22;6863;48.402;9.994;2023-09-30T13:49:13;31.90;39.30
13585;DHT22;6863;48.402;9.994;2023-09-30T13:51:39;32.90;37.60
13585;DHT22;6863;48.402;9.994;2023-09-30T13:54:05;33.70;36.60
13585;DHT22;6863;48.402;9.994;2023-09-30T13:56:33;33.60;35.60
13585;DHT22;6863;48.402;9.994;2023-09-30T13:58:58;33.80;35.60
13585;DHT22;6863;48.402;9.994;2023-09-30T14:01:25;33.20;36.40
13585;DHT22;6863;48.402;9.994;2023-09-30T14:03:50;33.40;36.80
13585;DHT22;6863;48.402;9.994;2023-09-30T14:06:20;33.40;36.80
13585;DHT22;6863;48.402;9.994;2023-09-30T14:08:46;32.50;38.80
13585;DHT22;6863;48.402;9.994;2023-09-30T14:11:11;32.00;38.70
13585;DHT22;6863;48.402;9.994;2023-09-30T14:13:37;31.10;39.80
13585;DHT22;6863;48.402;9.994;2023-09-30T14:16:05;30.10;40.90
13585;DHT22;6863;48.402;9.994;2023-09-30T14:18:30;29.40;42.30
13585;DHT22;6863;48.402;9.994;2023-09-30T14:20:56;28.90;43.90
13585;DHT22;6863;48.402;9.994;2023-09-30T14:23:22;28.10;45.70
13585;DHT22;6863;48.402;9.994;2023-09-30T14:25:49;27.90;46.40
13585;DHT22;6863;48.402;9.994;2023-09-30T14:28:14;27.60;47.20
13585;DHT22;6863;48.402;9.994;2023-09-30T14:30:40;27.30;48.40
13585;DHT22;6863;48.402;9.994;2023-09-30T14:33:06;27.70;48.30
13585;DHT22;6863;48.402;9.994;2023-09-30T14:35:33;28.40;47.10
13585;DHT22;6863;48.402;9.994;2023-09-30T14:38:00;28.70;46.00
13585;DHT22;6863;48.402;9.994;2023-09-30T14:40:26;29.10;45.50
13585;DHT22;6863;48.402;9.994;2023-09-30T14:42:51;28.80;45.60
13585;DHT22;6863;48.402;9.994;2023-09-30T14:45:18;27.90;47.10
13585;DHT22;6863;48.402;9.994;2023-09-30T14:47:43;27.70;47.90
13585;DHT22;6863;48.402;9.994;2023-09-30T14:50:09;27.30;48.10
13585;DHT22;6863;48.402;9.994;2023-09-30T14:52:34;26.50;49.90
13585;DHT22;6863;48.402;9.994;2023-09-30T14:55:00;26.30;50.50
13585;DHT22;6863;48.402;9.994;2023-09-30T14:57:26;25.90;51.30
13585;DHT22;6863;48.402;9.994;2023-09-30T14:59:51;25.40;52.50
13585;DHT22;6863;48.402;9.994;2023-09-30T15:02:17;25.00;53.60
13585;DHT22;6863;48.402;9.994;2023-09-30T15:04:43;24.80;53.70
13585;DHT22;6863;48.402;9.994;2023-09-30T15:07:09;24.80;53.20
13585;DHT22;6863;48.402;9.994;2023-09-30T15:09:34;24.60;53.30
13585;DHT22;6863;48.402;9.994;2023-09-30T15:12:00;24.50;53.40
13585;DHT22;6863;48.402;9.994;2023-09-30T15:14:26;24.50;53.60
13585;DHT22;6863;48.402;9.994;2023-09-30T15:16:51;24.50;53.70
13585;DHT22;6863;48.402;9.994;2023-09-30T15:19:17;24.40;53.90
13585;DHT22;6863;48.402;9.994;2023-09-30T15:21:43;24.20;54.30
13585;DHT22;6863;48.402;9.994;2023-09-30T15:24:08;23.80;55.50
13585;DHT22;6863;48.402;9.994;2023-09-30T15:26:34;23.60;55.90
13585;DHT22;6863;48.402;9.994;2023-09-30T15:29:00;23.50;55.70
13585;DHT22;6863;48.402;9.994;2023-09-30T15:31:32;23.40;56.10
13585;DHT22;6863;48.402;9.994;2023-09-30T15:33:58;23.40;56.00
13585;DHT22;6863;48.402;9.994;2023-09-30T15:36:24;23.20;56.10
13585;DHT22;6863;48.402;9.994;2023-09-30T15:38:51;23.10;56.60
13585;DHT22;6863;48.402;9.994;2023-09-30T15:41:22;23.10;57.10
13585;DHT22;6863;48.402;9.994;2023-09-30T15:43:49;23.10;57.30
13585;DHT22;6863;48.402;9.994;2023-09-30T15:46:15;23.00;57.50
13585;DHT22;6863;48.402;9.994;2023-09-30T15:48:40;22.80;57.80
13585;DHT22;6863;48.402;9.994;2023-09-30T15:51:06;22.70;58.40
13585;DHT22;6863;48.402;9.994;2023-09-30T15:53:32;22.40;59.10
13585;DHT22;6863;48.402;9.994;2023-09-30T15:56:02;22.40;59.10
13585;DHT22;6863;48.402;9.994;2023-09-30T15:58:27;22.40;59.30
13585;DHT22;6863;48.402;9.994;2023-09-30T16:00:54;22.30;59.70
13585;DHT22;6863;48.402;9.994;2023-09-30T16:03:20;22.20;59.90
13585;DHT22;6863;48.402;9.994;2023-09-30T16:05:47;22.10;60.10
13585;DHT22;6863;48.402;9.994;2023-09-30T16:08:13;21.90;60.70